createdAt,value
2019-04-27T00:00:36.623Z,7.67
2019-04-27T00:03:07.003Z,8.95
2019-04-27T00:05:39.867Z,8.80
2019-04-27T00:08:19.102Z,9.88
2019-04-27T00:10:49.405Z,8.65
2019-04-27T00:13:18.110Z,7.85
2019-04-27T00:15:48.353Z,8.88
2019-04-27T00:18:18.489Z,8.15
2019-04-27T00:20:51.465Z,9.35
2019-04-27T00:23:24.733Z,9.63
2019-04-27T00:25:53.471Z,8.68
2019-04-27T00:28:23.001Z,9.23
2019-04-27T00:30:53.105Z,8.58
2019-04-27T00:33:23.426Z,8.30
2019-04-27T00:35:59.582Z,8.40
2019-04-27T00:38:36.111Z,9.18
2019-04-27T00:41:09.669Z,8.78
2019-04-27T00:43:38.232Z,8.53
2019-04-27T00:46:06.932Z,8.23
2019-04-27T00:48:35.604Z,9.90
2019-04-27T00:51:04.440Z,9.50
2019-04-27T00:53:33.509Z,10.35
2019-04-27T00:56:09.904Z,9.18
2019-04-27T00:58:40.170Z,9.58
2019-04-27T01:01:26.949Z,10.15
2019-04-27T01:03:57.161Z,10.70
2019-04-27T01:06:25.974Z,11.43
2019-04-27T01:08:54.843Z,10.82
2019-04-27T01:11:24.957Z,10.95
2019-04-27T01:13:53.778Z,10.88
2019-04-27T01:16:24.184Z,12.07
2019-04-27T01:18:53.966Z,10.13
2019-04-27T01:21:22.613Z,11.00
2019-04-27T01:23:51.358Z,11.20
2019-04-27T01:26:28.660Z,13.78
2019-04-27T01:29:02.036Z,13.08
2019-04-27T01:31:30.935Z,13.88
2019-04-27T01:33:59.579Z,13.45
2019-04-27T01:36:29.127Z,12.43
2019-04-27T01:38:59.399Z,12.70
2019-04-27T01:41:29.138Z,12.45
2019-04-27T01:43:59.119Z,13.18
2019-04-27T01:46:29.437Z,13.00
2019-04-27T01:48:59.082Z,13.22
2019-04-27T01:51:29.427Z,13.90
2019-04-27T01:53:59.390Z,12.23
2019-04-27T01:56:29.387Z,13.30
2019-04-27T01:58:59.497Z,12.90
2019-04-27T02:01:42.000Z,12.68
2019-04-27T02:04:12.315Z,13.75
2019-04-27T02:06:41.023Z,12.58
2019-04-27T02:09:12.595Z,12.93
2019-04-27T02:11:41.196Z,13.15
2019-04-27T02:14:09.852Z,12.95
2019-04-27T02:16:39.130Z,13.20
2019-04-27T02:19:11.017Z,14.30
2019-04-27T02:21:39.205Z,14.35
2019-04-27T02:24:09.796Z,14.00
2019-04-27T02:26:39.902Z,12.70
2019-04-27T02:29:25.483Z,14.18
2019-04-27T02:32:14.054Z,14.28
2019-04-27T02:34:44.262Z,13.88
2019-04-27T02:37:13.002Z,13.15
2019-04-27T02:39:41.541Z,14.13
2019-04-27T02:42:10.325Z,14.38
2019-04-27T02:44:40.939Z,15.53
2019-04-27T02:47:10.615Z,15.40
2019-04-27T02:49:40.619Z,14.50
2019-04-27T02:52:20.222Z,14.85
2019-04-27T02:54:50.513Z,14.05
2019-04-27T02:57:19.947Z,14.80
2019-04-27T02:59:50.293Z,15.95
2019-04-27T03:02:20.872Z,14.87
2019-04-27T03:04:50.073Z,16.37
2019-04-27T03:07:20.087Z,16.12
2019-04-27T03:09:50.988Z,16.25
2019-04-27T03:12:20.995Z,16.35
2019-04-27T03:14:54.472Z,16.85
2019-04-27T03:17:31.233Z,17.40
2019-04-27T03:20:20.364Z,16.35
2019-04-27T03:22:56.135Z,14.95
2019-04-27T03:25:26.466Z,15.00
2019-04-27T03:27:56.742Z,15.38
2019-04-27T03:30:25.402Z,15.78
2019-04-27T03:32:56.770Z,14.85
2019-04-27T03:35:24.733Z,16.80
2019-04-27T03:37:53.352Z,17.77
2019-04-27T03:40:22.068Z,16.32
2019-04-27T03:42:52.265Z,14.93
2019-04-27T03:45:20.836Z,16.75
2019-04-27T03:47:50.474Z,17.27
2019-04-27T03:50:21.074Z,15.90
2019-04-27T03:52:57.069Z,14.70
2019-04-27T03:55:43.695Z,14.15
2019-04-27T03:58:14.013Z,14.33
2019-04-27T04:00:42.686Z,13.78
2019-04-27T04:03:11.317Z,14.20
2019-04-27T04:05:40.078Z,14.63
2019-04-27T04:08:10.654Z,15.18
2019-04-27T04:10:41.796Z,12.58
2019-04-27T04:13:12.210Z,13.18
2019-04-27T04:15:49.533Z,11.48
2019-04-27T04:18:19.689Z,11.78
2019-04-27T04:20:50.382Z,11.03
2019-04-27T04:23:20.461Z,9.23
2019-04-27T04:25:49.867Z,8.75
2019-04-27T04:28:19.939Z,10.10
2019-04-27T04:30:50.120Z,9.83
2019-04-27T04:33:20.577Z,9.50
2019-04-27T04:35:49.999Z,9.38
2019-04-27T04:38:20.548Z,10.25
2019-04-27T04:40:51.118Z,9.98
2019-04-27T04:43:24.053Z,8.73
2019-04-27T04:46:00.492Z,9.25
2019-04-27T04:48:30.185Z,9.75
2019-04-27T04:50:59.934Z,10.40
2019-04-27T04:53:29.399Z,10.95
2019-04-27T04:56:00.107Z,11.05
2019-04-27T04:58:29.457Z,11.18
2019-04-27T05:00:59.581Z,12.28
2019-04-27T05:03:28.767Z,12.35
2019-04-27T05:05:58.827Z,12.37
2019-04-27T05:08:29.228Z,11.83
2019-04-27T05:10:59.659Z,11.00
2019-04-27T05:13:29.336Z,11.30
2019-04-27T05:15:58.888Z,10.72
2019-04-27T05:18:29.118Z,9.83
2019-04-27T05:20:59.639Z,10.58
2019-04-27T05:23:28.750Z,11.12
2019-04-27T05:25:59.168Z,9.80
2019-04-27T05:28:29.635Z,9.68
2019-04-27T05:30:58.712Z,10.58
2019-04-27T05:33:28.681Z,9.53
2019-04-27T05:35:58.968Z,9.55
2019-04-27T05:38:29.275Z,10.35
2019-04-27T05:40:58.643Z,8.83
2019-04-27T05:43:39.013Z,9.65
2019-04-27T05:46:39.895Z,9.30
2019-04-27T05:49:10.196Z,9.78
2019-04-27T05:51:40.542Z,10.15
2019-04-27T05:54:09.197Z,10.10
2019-04-27T05:56:39.065Z,9.55
2019-04-27T05:59:09.196Z,10.15
2019-04-27T06:01:38.897Z,9.55
2019-04-27T06:04:08.984Z,10.23
2019-04-27T06:06:39.703Z,9.60
2019-04-27T06:09:09.470Z,10.53
2019-04-27T06:11:39.834Z,9.83
2019-04-27T06:14:09.674Z,10.20
2019-04-27T06:16:39.402Z,10.55
2019-04-27T06:19:09.628Z,9.93
2019-04-27T06:21:40.157Z,8.98
2019-04-27T06:24:08.967Z,8.90
2019-04-27T06:26:39.771Z,10.25
2019-04-27T06:29:09.472Z,10.28
2019-04-27T06:31:39.644Z,10.13
2019-04-27T06:34:09.786Z,10.32
2019-04-27T06:36:38.810Z,10.18
2019-04-27T06:39:09.747Z,11.15
2019-04-27T06:41:40.064Z,11.33
2019-04-27T06:44:09.372Z,12.28
2019-04-27T06:46:40.547Z,11.05
2019-04-27T06:49:10.966Z,10.53
2019-04-27T06:51:40.169Z,10.40
2019-04-27T06:54:09.276Z,10.95
2019-04-27T06:56:38.945Z,10.50
2019-04-27T06:59:08.758Z,11.05
2019-04-27T07:01:39.006Z,10.03
2019-04-27T07:04:08.868Z,10.45
2019-04-27T07:06:51.110Z,9.63
2019-04-27T07:09:09.892Z,10.63
2019-04-27T07:11:39.368Z,10.90
2019-04-27T07:14:11.230Z,11.00
2019-04-27T07:16:39.277Z,11.03
2019-04-27T07:19:09.444Z,11.15
2019-04-27T07:21:39.874Z,10.90
2019-04-27T07:24:09.024Z,12.28
2019-04-27T07:26:39.067Z,11.12
2019-04-27T07:29:09.613Z,11.55
2019-04-27T07:31:40.071Z,13.43
2019-04-27T07:34:09.357Z,10.85
2019-04-27T07:36:39.362Z,10.82
2019-04-27T07:39:09.651Z,11.25
2019-04-27T07:41:39.032Z,10.70
2019-04-27T07:44:15.017Z,10.78
2019-04-27T07:46:43.663Z,10.68
2019-04-27T07:49:12.194Z,11.45
2019-04-27T07:51:40.705Z,11.28
2019-04-27T07:54:09.350Z,10.90
2019-04-27T07:56:39.005Z,11.12
2019-04-27T07:59:09.077Z,11.25
2019-04-27T08:01:39.337Z,11.70
2019-04-27T08:04:09.091Z,10.03
2019-04-27T08:06:38.731Z,11.75
2019-04-27T08:09:09.245Z,10.75
2019-04-27T08:11:39.161Z,11.08
2019-04-27T08:14:08.747Z,10.58
2019-04-27T08:16:38.742Z,11.25
2019-04-27T08:19:09.719Z,11.15
2019-04-27T08:21:44.243Z,11.15
2019-04-27T08:24:09.254Z,11.43
2019-04-27T08:26:40.309Z,10.95
2019-04-27T08:29:13.574Z,10.50
2019-04-27T08:31:46.523Z,9.43
2019-04-27T08:34:34.487Z,7.80
2019-04-27T08:37:04.162Z,8.18
2019-04-27T08:39:33.109Z,9.28
2019-04-27T08:42:02.040Z,6.45
2019-04-27T08:44:31.876Z,7.85
2019-04-27T08:47:00.619Z,5.95
2019-04-27T08:49:29.373Z,7.12
2019-04-27T08:52:01.667Z,6.95
2019-04-27T08:54:29.422Z,8.15
2019-04-27T08:56:59.645Z,7.25
2019-04-27T08:59:29.673Z,7.20
2019-04-27T09:01:58.787Z,7.17
2019-04-27T09:04:28.824Z,8.50
2019-04-27T09:06:59.772Z,7.17
2019-04-27T09:09:45.724Z,6.35
2019-04-27T09:12:24.928Z,8.83
2019-04-27T09:14:55.206Z,6.28
2019-04-27T09:17:34.637Z,6.50
2019-04-27T09:20:05.508Z,5.55
2019-04-27T09:22:34.161Z,6.40
2019-04-27T09:25:02.739Z,5.83
2019-04-27T09:27:31.328Z,5.95
2019-04-27T09:29:59.956Z,6.17
2019-04-27T09:32:29.027Z,7.70
2019-04-27T09:34:57.538Z,6.50
2019-04-27T09:37:27.457Z,6.70
2019-04-27T09:39:56.211Z,6.20
2019-04-27T09:42:24.802Z,6.20
2019-04-27T09:44:55.749Z,5.85
2019-04-27T09:47:24.194Z,6.85
2019-04-27T09:49:52.827Z,6.15
2019-04-27T09:52:26.219Z,6.33
2019-04-27T09:54:51.795Z,5.92
2019-04-27T09:57:20.279Z,6.12
2019-04-27T09:59:48.913Z,7.42
2019-04-27T10:02:17.586Z,6.45
2019-04-27T10:04:46.327Z,6.80
2019-04-27T10:07:16.543Z,6.28
2019-04-27T10:09:45.460Z,6.20
2019-04-27T10:12:15.906Z,6.40
2019-04-27T10:14:45.415Z,5.92
2019-04-27T10:17:14.943Z,6.22
2019-04-27T10:19:43.606Z,5.65
2019-04-27T10:22:12.672Z,5.33
2019-04-27T10:24:41.281Z,6.03
2019-04-27T10:27:09.915Z,5.72
2019-04-27T10:29:38.513Z,6.12
2019-04-27T10:32:07.273Z,5.78
2019-04-27T10:34:35.904Z,6.50
2019-04-27T10:37:06.042Z,5.85
2019-04-27T10:39:36.056Z,5.33
2019-04-27T10:42:06.735Z,5.12
2019-04-27T10:44:35.615Z,5.70
2019-04-27T10:47:05.886Z,4.95
2019-04-27T10:49:34.638Z,5.60
2019-04-27T10:52:03.241Z,5.08
2019-04-27T10:54:31.880Z,6.85
2019-04-27T10:57:00.506Z,5.67
2019-04-27T10:59:29.196Z,6.15
2019-04-27T11:01:57.765Z,5.55
2019-04-27T11:04:35.922Z,5.05
2019-04-27T11:07:09.202Z,5.37
2019-04-27T11:09:37.827Z,5.78
2019-04-27T11:12:07.009Z,5.90
2019-04-27T11:14:35.764Z,5.03
2019-04-27T11:17:06.468Z,4.33
2019-04-27T11:19:35.783Z,5.08
2019-04-27T15:06:38.904Z,0.78
2019-04-27T15:09:08.136Z,0.80
2019-04-27T15:11:36.791Z,0.93
2019-04-27T15:14:05.730Z,0.80
2019-04-27T15:16:37.884Z,1.10
2019-04-27T15:19:13.170Z,1.30
2019-04-27T15:21:55.853Z,1.47
2019-04-27T15:24:13.653Z,2.35
2019-04-27T15:26:42.477Z,1.50
2019-04-27T15:29:12.745Z,1.50
2019-04-27T15:31:43.016Z,1.65
2019-04-27T15:34:19.024Z,1.77
2019-04-27T15:36:56.780Z,1.50
2019-04-27T15:39:39.600Z,1.80
2019-04-27T15:42:22.022Z,1.82
2019-04-27T15:44:50.565Z,2.58
2019-04-27T15:47:20.202Z,1.90
2019-04-27T15:49:51.076Z,2.30
2019-04-27T15:52:19.242Z,1.90
2019-04-27T15:54:48.189Z,2.02
2019-04-27T15:57:19.103Z,2.50
2019-04-27T15:59:48.263Z,1.65
2019-04-27T16:02:18.584Z,2.27
2019-04-27T16:04:49.794Z,2.02
2019-04-27T16:07:24.534Z,1.57
2019-04-27T16:09:48.781Z,1.40
2019-04-27T16:12:18.163Z,1.00
2019-04-27T16:14:47.946Z,2.08
2019-04-27T16:17:18.041Z,3.55
2019-04-27T16:19:50.131Z,4.87
2019-04-27T16:22:18.422Z,4.70
2019-04-27T16:24:49.519Z,4.55
2019-04-27T16:27:18.092Z,4.62
2019-04-27T16:29:49.216Z,3.90
2019-04-27T16:32:18.101Z,5.30
2019-04-27T16:34:47.849Z,3.08
2019-04-27T16:37:22.262Z,2.80
2019-04-27T16:39:49.553Z,1.95
2019-04-27T16:42:18.672Z,2.72
2019-04-27T16:44:51.317Z,3.15
2019-04-27T16:47:24.162Z,2.62
2019-04-27T16:49:48.440Z,2.98
2019-04-27T16:52:19.224Z,2.67
2019-04-27T16:54:56.303Z,2.92
2019-04-27T16:57:19.807Z,3.90
2019-04-27T16:59:54.884Z,4.67
2019-04-27T17:02:23.615Z,5.22
2019-04-27T17:04:52.823Z,3.05
2019-04-27T17:07:19.803Z,2.83
2019-04-27T17:09:49.462Z,4.60
2019-04-27T17:12:18.562Z,6.22
2019-04-27T17:14:53.019Z,6.35
2019-04-27T17:17:29.486Z,5.03
2019-04-27T17:19:59.636Z,5.58
2019-04-27T17:22:28.709Z,4.22
2019-04-27T17:24:58.137Z,3.72
2019-04-27T17:27:31.877Z,5.35
2019-04-27T17:30:01.696Z,4.00
2019-04-27T17:32:33.870Z,4.60
2019-04-27T17:35:05.661Z,4.37
2019-04-27T17:37:33.873Z,4.20
2019-04-27T17:40:02.603Z,4.78
2019-04-27T17:42:31.195Z,4.17
2019-04-27T17:45:00.524Z,4.22
2019-04-27T17:47:30.056Z,4.30
2019-04-27T17:49:58.627Z,4.65
2019-04-27T17:52:27.227Z,4.70
2019-04-27T17:54:55.865Z,4.45
2019-04-27T17:57:26.521Z,4.05
2019-04-27T17:59:58.988Z,2.27
2019-04-27T18:02:25.450Z,2.25
2019-04-27T18:04:54.074Z,2.95
2019-04-27T18:07:22.746Z,3.92
2019-04-27T18:09:51.352Z,4.08
2019-04-27T18:12:20.295Z,4.40
2019-04-27T18:14:48.979Z,5.62
2019-04-27T18:17:19.833Z,5.40
2019-04-27T18:19:55.876Z,5.47
2019-04-27T18:22:24.518Z,6.03
2019-04-27T18:25:03.357Z,8.08
2019-04-27T18:27:37.687Z,7.87
2019-04-27T18:30:15.139Z,9.33
2019-04-27T18:32:43.813Z,10.58
2019-04-27T18:35:12.448Z,10.38
2019-04-27T18:37:41.020Z,10.35
2019-04-27T18:40:09.899Z,10.55
2019-04-27T18:42:38.617Z,8.78
2019-04-27T18:45:08.388Z,10.43
2019-04-27T18:47:40.481Z,10.70
2019-04-27T18:50:14.947Z,10.95
2019-04-27T18:52:54.197Z,10.65
2019-04-27T18:55:22.709Z,9.60
2019-04-27T18:57:54.338Z,9.63
2019-04-27T19:00:22.891Z,9.50
2019-04-27T19:02:51.548Z,9.90
2019-04-27T19:05:20.115Z,12.20
2019-04-27T19:07:48.783Z,13.10
2019-04-27T19:10:19.201Z,13.95
2019-04-27T19:12:48.356Z,14.58
2019-04-27T19:15:18.358Z,17.50
2019-04-27T19:17:48.949Z,16.95
2019-04-27T19:20:18.643Z,17.27
2019-04-27T19:22:49.030Z,17.77
2019-04-27T19:25:19.528Z,16.80
2019-04-27T19:28:06.006Z,17.15
2019-04-27T19:30:36.225Z,18.52
2019-04-27T19:33:04.873Z,15.72
2019-04-27T19:35:33.526Z,15.00
2019-04-27T19:38:02.165Z,13.70
2019-04-27T19:40:30.779Z,18.20
2019-04-27T19:42:59.278Z,20.48
2019-04-27T19:45:29.235Z,20.17
2019-04-27T19:47:57.822Z,20.80
2019-04-27T19:50:28.476Z,27.98
2019-04-27T19:52:58.613Z,28.47
2019-04-27T19:55:28.197Z,25.77
2019-04-27T19:57:57.011Z,24.05
2019-04-27T20:00:43.668Z,25.35
2019-04-27T20:03:14.004Z,24.77
2019-04-27T20:05:42.502Z,23.02
2019-04-27T20:08:12.710Z,28.35
2019-04-27T20:10:43.241Z,25.75
2019-04-27T20:13:11.757Z,29.82
2019-04-27T20:15:40.666Z,27.80
2019-04-27T20:18:10.872Z,29.90
2019-04-27T20:20:39.513Z,30.52
2019-04-27T20:23:08.150Z,30.97
2019-04-27T20:25:36.773Z,31.02
2019-04-27T20:28:05.426Z,25.95
2019-04-27T20:30:34.007Z,28.40
2019-04-27T20:33:02.538Z,28.92
2019-04-27T20:35:31.182Z,29.05
2019-04-27T20:37:59.815Z,31.17
2019-04-27T20:40:28.315Z,31.65
2019-04-27T20:42:56.818Z,26.82
2019-04-27T20:45:25.544Z,21.12
2019-04-27T20:47:54.129Z,18.00
2019-04-27T20:50:22.790Z,16.90
2019-04-27T20:52:53.206Z,16.48
2019-04-27T20:55:21.857Z,16.75
2019-04-27T20:57:59.671Z,17.87
2019-04-27T21:00:22.109Z,19.52
2019-04-27T21:03:07.591Z,21.15
2019-04-27T21:05:46.917Z,22.60
2019-04-27T21:08:20.856Z,22.13
2019-04-27T21:10:51.422Z,22.07
2019-04-27T21:13:20.006Z,22.02
2019-04-27T21:15:48.574Z,22.77
2019-04-27T21:18:17.152Z,20.27
2019-04-27T21:20:45.833Z,19.20
2019-04-27T21:23:14.472Z,15.65
2019-04-27T21:25:43.036Z,16.40
2019-04-27T21:28:16.545Z,16.48
2019-04-27T21:30:42.087Z,17.55
2019-04-27T21:33:11.515Z,19.48
2019-04-27T21:35:40.144Z,19.48
2019-04-27T21:38:08.783Z,20.25
2019-04-27T21:40:37.420Z,20.30
2019-04-27T21:43:06.106Z,19.73
2019-04-27T21:45:34.674Z,18.60
2019-04-27T21:48:03.309Z,18.40
2019-04-27T21:50:31.936Z,18.52
2019-04-27T21:53:11.242Z,17.30
2019-04-27T21:55:42.085Z,15.32
2019-04-27T21:58:11.572Z,14.95
2019-04-27T22:00:42.789Z,13.32
2019-04-27T22:03:13.607Z,10.98
2019-04-27T22:05:42.235Z,8.35
2019-04-27T22:08:11.708Z,6.95
2019-04-27T22:10:40.752Z,7.85
2019-04-27T22:13:09.253Z,7.78
2019-04-27T22:15:37.899Z,7.45
2019-04-27T22:18:06.938Z,6.75
2019-04-27T22:20:35.931Z,7.05
2019-04-27T22:23:08.911Z,5.75
2019-04-27T22:25:38.950Z,3.98
2019-04-27T22:28:07.590Z,4.40
2019-04-27T22:30:36.598Z,3.45
2019-04-27T22:33:05.270Z,3.35
2019-04-27T22:35:33.833Z,3.67
2019-04-27T22:38:02.467Z,4.17
2019-04-27T22:40:50.904Z,3.98
2019-04-27T22:43:26.822Z,3.65
2019-04-27T22:45:56.066Z,2.77
2019-04-27T22:48:24.635Z,2.77
2019-04-27T22:50:53.275Z,2.67
2019-04-27T22:53:22.043Z,3.22
2019-04-27T22:56:08.738Z,2.47
2019-04-27T22:58:40.669Z,3.10
2019-04-27T23:01:10.898Z,2.55
2019-04-27T23:03:41.508Z,2.40
2019-04-27T23:06:11.424Z,2.20
2019-04-27T23:08:41.483Z,2.47
2019-04-27T23:11:10.840Z,2.35
2019-04-27T23:13:39.594Z,1.70
2019-04-27T23:16:11.581Z,2.10
2019-04-27T23:18:41.396Z,2.08
2019-04-27T23:21:11.774Z,2.02
2019-04-27T23:23:41.357Z,1.52
2019-04-27T23:26:11.852Z,2.42
2019-04-27T23:28:41.371Z,2.52
2019-04-27T23:31:26.635Z,2.08
2019-04-27T23:33:55.320Z,1.50
2019-04-27T23:36:23.809Z,1.90
2019-04-27T23:38:52.481Z,1.82
2019-04-27T23:41:21.155Z,2.55
2019-04-27T23:43:49.787Z,2.62
2019-04-27T23:46:18.430Z,2.85
2019-04-27T23:48:47.168Z,2.58
2019-04-27T23:51:29.063Z,2.30
2019-04-27T23:53:57.592Z,3.10
2019-04-27T23:56:26.235Z,3.02
2019-04-27T23:58:54.873Z,3.72
